sensor_id;sensor_type;location;lat;lon;timestamp;P1;durP1;ratioP1;P2;durP2;ratioP2
67597;SDS011;62026;39.230;9.122;2023-09-12T00:00:12;9.13;;;4.20;;
67597;SDS011;62026;39.230;9.122;2023-09-12T00:02:38;5.25;;;4.20;;
67597;SDS011;62026;39.230;9.122;2023-09-12T00:05:04;7.40;;;4.40;;
67597;SDS011;62026;39.230;9.122;2023-09-12T00:07:31;12.35;;;4.20;;
67597;SDS011;62026;39.230;9.122;2023-09-12T00:09:57;6.72;;;4.30;;
67597;SDS011;62026;39.230;9.122;2023-09-12T00:12:23;7.13;;;4.18;;
67597;SDS011;62026;39.230;9.122;2023-09-12T00:14:50;9.85;;;4.53;;
67597;SDS011;62026;39.230;9.122;2023-09-12T00:17:16;7.40;;;4.28;;
67597;SDS011;62026;39.230;9.122;2023-09-12T00:19:42;7.95;;;4.72;;
67597;SDS011;62026;39.230;9.122;2023-09-12T00:22:08;5.15;;;3.97;;
67597;SDS011;62026;39.230;9.122;2023-09-12T00:24:34;9.05;;;4.60;;
67597;SDS011;62026;39.230;9.122;2023-09-12T00:27:00;5.85;;;4.20;;
67597;SDS011;62026;39.230;9.122;2023-09-12T00:29:26;6.47;;;4.07;;
67597;SDS011;62026;39.230;9.122;2023-09-12T00:31:52;8.23;;;4.05;;
67597;SDS011;62026;39.230;9.122;2023-09-12T00:34:18;4.88;;;3.90;;
67597;SDS011;62026;39.230;9.122;2023-09-12T00:36:44;9.85;;;4.60;;
67597;SDS011;62026;39.230;9.122;2023-09-12T00:39:10;6.05;;;4.50;;
67597;SDS011;62026;39.230;9.122;2023-09-12T00:41:36;6.50;;;4.15;;
67597;SDS011;62026;39.230;9.122;2023-09-12T00:44:02;5.72;;;4.22;;
67597;SDS011;62026;39.230;9.122;2023-09-12T00:46:28;7.05;;;4.22;;
67597;SDS011;62026;39.230;9.122;2023-09-12T00:48:55;7.10;;;4.18;;
67597;SDS011;62026;39.230;9.122;2023-09-12T00:51:25;6.65;;;4.38;;
67597;SDS011;62026;39.230;9.122;2023-09-12T00:53:53;8.23;;;4.47;;
67597;SDS011;62026;39.230;9.122;2023-09-12T00:56:20;6.93;;;4.53;;
67597;SDS011;62026;39.230;9.122;2023-09-12T00:58:46;6.78;;;4.25;;
67597;SDS011;62026;39.230;9.122;2023-09-12T01:01:15;7.20;;;4.45;;
67597;SDS011;62026;39.230;9.122;2023-09-12T01:03:43;11.57;;;4.40;;
67597;SDS011;62026;39.230;9.122;2023-09-12T01:06:09;15.25;;;4.65;;
67597;SDS011;62026;39.230;9.122;2023-09-12T01:08:36;8.40;;;4.05;;
67597;SDS011;62026;39.230;9.122;2023-09-12T01:11:03;7.20;;;4.15;;
67597;SDS011;62026;39.230;9.122;2023-09-12T01:13:30;8.80;;;4.30;;
67597;SDS011;62026;39.230;9.122;2023-09-12T01:15:56;6.00;;;4.30;;
67597;SDS011;62026;39.230;9.122;2023-09-12T01:18:22;8.23;;;4.45;;
67597;SDS011;62026;39.230;9.122;2023-09-12T01:27:33;7.35;;;4.45;;
67597;SDS011;62026;39.230;9.122;2023-09-12T01:30:05;9.52;;;4.03;;
67597;SDS011;62026;39.230;9.122;2023-09-12T01:32:33;6.63;;;4.40;;
67597;SDS011;62026;39.230;9.122;2023-09-12T01:35:01;7.47;;;4.22;;
67597;SDS011;62026;39.230;9.122;2023-09-12T01:37:30;7.75;;;4.20;;
67597;SDS011;62026;39.230;9.122;2023-09-12T01:39:57;8.75;;;4.10;;
67597;SDS011;62026;39.230;9.122;2023-09-12T01:42:23;7.00;;;4.03;;
67597;SDS011;62026;39.230;9.122;2023-09-12T01:44:55;5.28;;;4.00;;
67597;SDS011;62026;39.230;9.122;2023-09-12T01:47:23;6.60;;;4.30;;
67597;SDS011;62026;39.230;9.122;2023-09-12T01:49:52;7.38;;;4.05;;
67597;SDS011;62026;39.230;9.122;2023-09-12T01:52:23;8.38;;;4.70;;
67597;SDS011;62026;39.230;9.122;2023-09-12T01:54:52;6.90;;;4.20;;
67597;SDS011;62026;39.230;9.122;2023-09-12T01:57:19;7.93;;;4.55;;
67597;SDS011;62026;39.230;9.122;2023-09-12T01:59:47;7.30;;;4.63;;
67597;SDS011;62026;39.230;9.122;2023-09-12T02:02:17;10.48;;;4.20;;
67597;SDS011;62026;39.230;9.122;2023-09-12T02:04:50;6.70;;;3.78;;
67597;SDS011;62026;39.230;9.122;2023-09-12T02:07:49;6.93;;;4.05;;
67597;SDS011;62026;39.230;9.122;2023-09-12T02:10:15;7.65;;;4.13;;
67597;SDS011;62026;39.230;9.122;2023-09-12T02:12:42;10.02;;;4.50;;
67597;SDS011;62026;39.230;9.122;2023-09-12T02:15:08;11.93;;;4.43;;
67597;SDS011;62026;39.230;9.122;2023-09-12T02:17:35;8.05;;;4.30;;
67597;SDS011;62026;39.230;9.122;2023-09-12T02:20:00;7.25;;;4.43;;
67597;SDS011;62026;39.230;9.122;2023-09-12T02:22:31;8.77;;;4.53;;
67597;SDS011;62026;39.230;9.122;2023-09-12T02:24:57;6.32;;;4.30;;
67597;SDS011;62026;39.230;9.122;2023-09-12T02:27:23;6.13;;;4.25;;
67597;SDS011;62026;39.230;9.122;2023-09-12T02:29:49;6.70;;;4.93;;
67597;SDS011;62026;39.230;9.122;2023-09-12T02:32:15;9.02;;;4.75;;
67597;SDS011;62026;39.230;9.122;2023-09-12T02:34:41;5.68;;;4.40;;
67597;SDS011;62026;39.230;9.122;2023-09-12T02:37:07;6.35;;;4.10;;
67597;SDS011;62026;39.230;9.122;2023-09-12T02:39:33;8.10;;;4.43;;
67597;SDS011;62026;39.230;9.122;2023-09-12T02:41:59;6.88;;;3.97;;
67597;SDS011;62026;39.230;9.122;2023-09-12T02:44:25;5.22;;;4.30;;
67597;SDS011;62026;39.230;9.122;2023-09-12T02:46:51;5.57;;;3.97;;
67597;SDS011;62026;39.230;9.122;2023-09-12T02:49:17;9.90;;;3.95;;
67597;SDS011;62026;39.230;9.122;2023-09-12T02:51:44;5.75;;;4.20;;
67597;SDS011;62026;39.230;9.122;2023-09-12T02:54:11;9.77;;;4.50;;
67597;SDS011;62026;39.230;9.122;2023-09-12T02:56:37;9.02;;;4.43;;
67597;SDS011;62026;39.230;9.122;2023-09-12T02:59:03;11.05;;;4.65;;
67597;SDS011;62026;39.230;9.122;2023-09-12T03:01:30;6.72;;;4.55;;
67597;SDS011;62026;39.230;9.122;2023-09-12T03:03:57;7.35;;;4.53;;
67597;SDS011;62026;39.230;9.122;2023-09-12T03:06:23;6.30;;;4.10;;
67597;SDS011;62026;39.230;9.122;2023-09-12T03:08:49;7.95;;;4.20;;
67597;SDS011;62026;39.230;9.122;2023-09-12T03:11:15;10.27;;;4.35;;
67597;SDS011;62026;39.230;9.122;2023-09-12T03:13:41;6.78;;;4.30;;
67597;SDS011;62026;39.230;9.122;2023-09-12T03:16:14;11.02;;;5.07;;
67597;SDS011;62026;39.230;9.122;2023-09-12T03:18:40;7.97;;;4.45;;
67597;SDS011;62026;39.230;9.122;2023-09-12T03:21:06;6.82;;;4.97;;
67597;SDS011;62026;39.230;9.122;2023-09-12T03:23:32;9.07;;;4.93;;
67597;SDS011;62026;39.230;9.122;2023-09-12T03:26:02;9.55;;;5.25;;
67597;SDS011;62026;39.230;9.122;2023-09-12T03:28:33;10.32;;;5.15;;
67597;SDS011;62026;39.230;9.122;2023-09-12T03:31:03;8.93;;;5.20;;
67597;SDS011;62026;39.230;9.122;2023-09-12T03:33:39;7.18;;;4.82;;
67597;SDS011;62026;39.230;9.122;2023-09-12T03:36:06;6.57;;;4.82;;
67597;SDS011;62026;39.230;9.122;2023-09-12T03:38:34;7.97;;;5.00;;
67597;SDS011;62026;39.230;9.122;2023-09-12T03:41:01;6.07;;;4.60;;
67597;SDS011;62026;39.230;9.122;2023-09-12T03:43:27;8.98;;;5.10;;
67597;SDS011;62026;39.230;9.122;2023-09-12T03:45:54;7.53;;;4.95;;
67597;SDS011;62026;39.230;9.122;2023-09-12T03:48:20;11.38;;;4.93;;
67597;SDS011;62026;39.230;9.122;2023-09-12T03:50:46;8.27;;;5.22;;
67597;SDS011;62026;39.230;9.122;2023-09-12T03:53:13;10.00;;;5.72;;
67597;SDS011;62026;39.230;9.122;2023-09-12T03:55:40;7.60;;;4.95;;
67597;SDS011;62026;39.230;9.122;2023-09-12T03:58:06;9.27;;;4.82;;
67597;SDS011;62026;39.230;9.122;2023-09-12T04:00:32;6.50;;;5.25;;
67597;SDS011;62026;39.230;9.122;2023-09-12T04:02:58;9.38;;;5.50;;
67597;SDS011;62026;39.230;9.122;2023-09-12T04:05:25;10.15;;;5.35;;
67597;SDS011;62026;39.230;9.122;2023-09-12T04:07:52;8.27;;;5.15;;
67597;SDS011;62026;39.230;9.122;2023-09-12T04:10:19;8.30;;;5.32;;
67597;SDS011;62026;39.230;9.122;2023-09-12T04:12:46;9.15;;;5.07;;
67597;SDS011;62026;39.230;9.122;2023-09-12T04:15:12;11.65;;;4.68;;
67597;SDS011;62026;39.230;9.122;2023-09-12T04:17:38;7.18;;;4.97;;
67597;SDS011;62026;39.230;9.122;2023-09-12T04:20:05;7.22;;;5.13;;
67597;SDS011;62026;39.230;9.122;2023-09-12T04:22:32;10.20;;;5.47;;
67597;SDS011;62026;39.230;9.122;2023-09-12T04:24:59;17.13;;;5.50;;
67597;SDS011;62026;39.230;9.122;2023-09-12T04:27:26;10.82;;;4.70;;
67597;SDS011;62026;39.230;9.122;2023-09-12T04:29:52;10.48;;;5.25;;
67597;SDS011;62026;39.230;9.122;2023-09-12T04:32:18;8.95;;;4.72;;
67597;SDS011;62026;39.230;9.122;2023-09-12T04:34:51;8.38;;;5.25;;
67597;SDS011;62026;39.230;9.122;2023-09-12T04:37:18;13.23;;;7.30;;
67597;SDS011;62026;39.230;9.122;2023-09-12T04:39:44;13.13;;;7.05;;
67597;SDS011;62026;39.230;9.122;2023-09-12T04:42:11;12.15;;;5.13;;
67597;SDS011;62026;39.230;9.122;2023-09-12T04:44:40;9.73;;;5.00;;
67597;SDS011;62026;39.230;9.122;2023-09-12T04:47:07;7.63;;;4.60;;
67597;SDS011;62026;39.230;9.122;2023-09-12T04:49:34;12.27;;;5.05;;
67597;SDS011;62026;39.230;9.122;2023-09-12T04:52:00;13.98;;;5.10;;
67597;SDS011;62026;39.230;9.122;2023-09-12T04:54:26;9.93;;;4.75;;
67597;SDS011;62026;39.230;9.122;2023-09-12T04:56:52;9.90;;;4.60;;
67597;SDS011;62026;39.230;9.122;2023-09-12T04:59:18;10.98;;;4.70;;
67597;SDS011;62026;39.230;9.122;2023-09-12T05:01:44;10.85;;;5.00;;
67597;SDS011;62026;39.230;9.122;2023-09-12T05:04:11;8.77;;;4.60;;
67597;SDS011;62026;39.230;9.122;2023-09-12T05:06:37;12.10;;;5.00;;
67597;SDS011;62026;39.230;9.122;2023-09-12T05:09:03;9.43;;;4.93;;
67597;SDS011;62026;39.230;9.122;2023-09-12T05:11:30;8.50;;;4.72;;
67597;SDS011;62026;39.230;9.122;2023-09-12T05:13:56;14.73;;;4.95;;
67597;SDS011;62026;39.230;9.122;2023-09-12T05:16:23;12.07;;;4.90;;
67597;SDS011;62026;39.230;9.122;2023-09-12T05:18:49;10.32;;;4.80;;
67597;SDS011;62026;39.230;9.122;2023-09-12T05:21:16;12.63;;;5.30;;
67597;SDS011;62026;39.230;9.122;2023-09-12T05:23:42;9.57;;;4.70;;
67597;SDS011;62026;39.230;9.122;2023-09-12T05:26:08;13.18;;;5.05;;
67597;SDS011;62026;39.230;9.122;2023-09-12T05:28:34;9.50;;;4.43;;
67597;SDS011;62026;39.230;9.122;2023-09-12T05:31:00;12.90;;;5.13;;
67597;SDS011;62026;39.230;9.122;2023-09-12T05:33:27;11.85;;;5.00;;
67597;SDS011;62026;39.230;9.122;2023-09-12T05:35:53;8.52;;;4.78;;
67597;SDS011;62026;39.230;9.122;2023-09-12T05:38:19;14.88;;;5.07;;
67597;SDS011;62026;39.230;9.122;2023-09-12T05:40:45;10.05;;;5.05;;
67597;SDS011;62026;39.230;9.122;2023-09-12T05:43:11;9.52;;;5.30;;
67597;SDS011;62026;39.230;9.122;2023-09-12T05:45:37;13.45;;;5.07;;
67597;SDS011;62026;39.230;9.122;2023-09-12T05:48:03;12.27;;;5.13;;
67597;SDS011;62026;39.230;9.122;2023-09-12T05:50:30;16.52;;;4.90;;
67597;SDS011;62026;39.230;9.122;2023-09-12T05:52:56;13.75;;;5.40;;
67597;SDS011;62026;39.230;9.122;2023-09-12T05:55:22;17.00;;;5.20;;
67597;SDS011;62026;39.230;9.122;2023-09-12T05:57:50;8.07;;;4.95;;
67597;SDS011;62026;39.230;9.122;2023-09-12T06:00:19;14.18;;;4.90;;
67597;SDS011;62026;39.230;9.122;2023-09-12T06:02:48;11.13;;;4.90;;
67597;SDS011;62026;39.230;9.122;2023-09-12T06:05:15;11.05;;;4.97;;
67597;SDS011;62026;39.230;9.122;2023-09-12T06:07:41;9.23;;;5.03;;
67597;SDS011;62026;39.230;9.122;2023-09-12T06:10:08;8.85;;;4.25;;
67597;SDS011;62026;39.230;9.122;2023-09-12T06:12:34;11.30;;;4.82;;
67597;SDS011;62026;39.230;9.122;2023-09-12T06:15:01;11.15;;;4.50;;
67597;SDS011;62026;39.230;9.122;2023-09-12T06:17:29;9.95;;;4.65;;
67597;SDS011;62026;39.230;9.122;2023-09-12T06:19:56;11.55;;;4.63;;
67597;SDS011;62026;39.230;9.122;2023-09-12T06:22:22;7.85;;;4.95;;
67597;SDS011;62026;39.230;9.122;2023-09-12T06:24:49;11.48;;;4.25;;
67597;SDS011;62026;39.230;9.122;2023-09-12T06:27:16;7.55;;;4.35;;
67597;SDS011;62026;39.230;9.122;2023-09-12T06:29:45;9.90;;;5.07;;
67597;SDS011;62026;39.230;9.122;2023-09-12T06:32:13;13.68;;;5.05;;
67597;SDS011;62026;39.230;9.122;2023-09-12T06:34:41;9.02;;;4.43;;
67597;SDS011;62026;39.230;9.122;2023-09-12T06:37:08;7.43;;;4.40;;
67597;SDS011;62026;39.230;9.122;2023-09-12T06:39:36;8.20;;;4.00;;
67597;SDS011;62026;39.230;9.122;2023-09-12T06:42:01;9.25;;;4.40;;
67597;SDS011;62026;39.230;9.122;2023-09-12T06:44:28;10.77;;;4.32;;
67597;SDS011;62026;39.230;9.122;2023-09-12T06:46:54;9.07;;;4.60;;
67597;SDS011;62026;39.230;9.122;2023-09-12T06:49:20;9.02;;;4.47;;
67597;SDS011;62026;39.230;9.122;2023-09-12T06:51:46;12.43;;;4.15;;
67597;SDS011;62026;39.230;9.122;2023-09-12T06:54:12;6.40;;;4.22;;
67597;SDS011;62026;39.230;9.122;2023-09-12T06:56:38;6.68;;;4.03;;
67597;SDS011;62026;39.230;9.122;2023-09-12T06:59:07;4.38;;;3.80;;
67597;SDS011;62026;39.230;9.122;2023-09-12T07:01:33;11.88;;;4.60;;
67597;SDS011;62026;39.230;9.122;2023-09-12T07:03:59;5.15;;;3.97;;
67597;SDS011;62026;39.230;9.122;2023-09-12T07:06:25;6.20;;;4.22;;
67597;SDS011;62026;39.230;9.122;2023-09-12T07:08:51;9.98;;;4.60;;
67597;SDS011;62026;39.230;9.122;2023-09-12T07:11:17;8.27;;;4.60;;
67597;SDS011;62026;39.230;9.122;2023-09-12T07:13:44;8.45;;;4.40;;
67597;SDS011;62026;39.230;9.122;2023-09-12T07:16:11;7.88;;;4.13;;
67597;SDS011;62026;39.230;9.122;2023-09-12T07:18:37;12.93;;;4.60;;
67597;SDS011;62026;39.230;9.122;2023-09-12T07:21:05;12.15;;;4.78;;
67597;SDS011;62026;39.230;9.122;2023-09-12T07:23:31;8.73;;;4.75;;
67597;SDS011;62026;39.230;9.122;2023-09-12T07:25:58;16.00;;;5.03;;
67597;SDS011;62026;39.230;9.122;2023-09-12T07:28:27;10.48;;;5.18;;
67597;SDS011;62026;39.230;9.122;2023-09-12T07:30:53;9.02;;;4.50;;
67597;SDS011;62026;39.230;9.122;2023-09-12T07:33:20;13.18;;;4.68;;
67597;SDS011;62026;39.230;9.122;2023-09-12T07:35:46;10.05;;;5.00;;
67597;SDS011;62026;39.230;9.122;2023-09-12T07:38:13;13.13;;;5.63;;
67597;SDS011;62026;39.230;9.122;2023-09-12T07:40:42;17.42;;;5.28;;
67597;SDS011;62026;39.230;9.122;2023-09-12T07:43:08;7.45;;;4.45;;
67597;SDS011;62026;39.230;9.122;2023-09-12T07:45:35;8.57;;;4.53;;
67597;SDS011;62026;39.230;9.122;2023-09-12T07:48:05;8.88;;;4.10;;
67597;SDS011;62026;39.230;9.122;2023-09-12T07:50:34;13.98;;;4.75;;
67597;SDS011;62026;39.230;9.122;2023-09-12T07:53:00;9.18;;;4.45;;
67597;SDS011;62026;39.230;9.122;2023-09-12T07:55:26;5.60;;;4.00;;
67597;SDS011;62026;39.230;9.122;2023-09-12T07:57:56;11.63;;;4.28;;
67597;SDS011;62026;39.230;9.122;2023-09-12T08:00:22;8.32;;;3.40;;
67597;SDS011;62026;39.230;9.122;2023-09-12T08:02:48;8.13;;;3.42;;
67597;SDS011;62026;39.230;9.122;2023-09-12T08:05:15;6.88;;;3.25;;
67597;SDS011;62026;39.230;9.122;2023-09-12T08:07:41;6.85;;;3.63;;
67597;SDS011;62026;39.230;9.122;2023-09-12T08:10:07;7.10;;;3.22;;
67597;SDS011;62026;39.230;9.122;2023-09-12T08:12:33;5.13;;;2.95;;
67597;SDS011;62026;39.230;9.122;2023-09-12T08:15:03;4.25;;;3.22;;
67597;SDS011;62026;39.230;9.122;2023-09-12T08:17:30;6.63;;;3.17;;
67597;SDS011;62026;39.230;9.122;2023-09-12T08:19:57;4.72;;;3.58;;
67597;SDS011;62026;39.230;9.122;2023-09-12T08:22:23;5.05;;;3.28;;
67597;SDS011;62026;39.230;9.122;2023-09-12T08:24:49;10.50;;;3.47;;
67597;SDS011;62026;39.230;9.122;2023-09-12T08:27:14;7.38;;;3.28;;
67597;SDS011;62026;39.230;9.122;2023-09-12T08:29:41;7.63;;;3.33;;
67597;SDS011;62026;39.230;9.122;2023-09-12T08:32:08;8.38;;;2.88;;
67597;SDS011;62026;39.230;9.122;2023-09-12T08:34:34;7.65;;;3.05;;
67597;SDS011;62026;39.230;9.122;2023-09-12T08:37:00;8.27;;;3.10;;
67597;SDS011;62026;39.230;9.122;2023-09-12T08:39:27;7.78;;;3.17;;
67597;SDS011;62026;39.230;9.122;2023-09-12T08:42:06;7.93;;;3.40;;
67597;SDS011;62026;39.230;9.122;2023-09-12T08:47:04;6.32;;;2.95;;
67597;SDS011;62026;39.230;9.122;2023-09-12T08:49:34;4.63;;;2.85;;
67597;SDS011;62026;39.230;9.122;2023-09-12T08:52:02;4.22;;;2.85;;
67597;SDS011;62026;39.230;9.122;2023-09-12T08:54:30;7.25;;;2.72;;
67597;SDS011;62026;39.230;9.122;2023-09-12T08:56:57;4.15;;;2.75;;
67597;SDS011;62026;39.230;9.122;2023-09-12T08:59:28;5.15;;;2.72;;
67597;SDS011;62026;39.230;9.122;2023-09-12T09:01:55;4.72;;;2.50;;
67597;SDS011;62026;39.230;9.122;2023-09-12T09:04:23;5.07;;;3.03;;
67597;SDS011;62026;39.230;9.122;2023-09-12T09:06:53;5.25;;;3.13;;
67597;SDS011;62026;39.230;9.122;2023-09-12T09:09:22;6.22;;;2.92;;
67597;SDS011;62026;39.230;9.122;2023-09-12T09:11:53;5.13;;;2.90;;
67597;SDS011;62026;39.230;9.122;2023-09-12T09:14:19;4.45;;;2.72;;
67597;SDS011;62026;39.230;9.122;2023-09-12T09:16:45;8.65;;;2.85;;
67597;SDS011;62026;39.230;9.122;2023-09-12T09:19:11;5.38;;;2.63;;
67597;SDS011;62026;39.230;9.122;2023-09-12T09:21:37;4.72;;;2.63;;
67597;SDS011;62026;39.230;9.122;2023-09-12T09:24:07;3.33;;;2.70;;
67597;SDS011;62026;39.230;9.122;2023-09-12T09:26:45;4.20;;;2.72;;
67597;SDS011;62026;39.230;9.122;2023-09-12T09:29:14;4.03;;;2.70;;
67597;SDS011;62026;39.230;9.122;2023-09-12T09:31:43;4.35;;;2.60;;
67597;SDS011;62026;39.230;9.122;2023-09-12T09:34:12;4.93;;;2.15;;
67597;SDS011;62026;39.230;9.122;2023-09-12T09:36:50;4.28;;;2.50;;
67597;SDS011;62026;39.230;9.122;2023-09-12T09:39:23;5.18;;;2.50;;
67597;SDS011;62026;39.230;9.122;2023-09-12T09:41:52;5.60;;;2.90;;
67597;SDS011;62026;39.230;9.122;2023-09-12T09:44:23;4.75;;;2.70;;
67597;SDS011;62026;39.230;9.122;2023-09-12T09:46:55;5.18;;;2.35;;
67597;SDS011;62026;39.230;9.122;2023-09-12T09:49:27;4.80;;;2.90;;
67597;SDS011;62026;39.230;9.122;2023-09-12T09:51:57;5.22;;;2.55;;
67597;SDS011;62026;39.230;9.122;2023-09-12T09:54:24;5.05;;;2.70;;
67597;SDS011;62026;39.230;9.122;2023-09-12T09:56:55;3.05;;;2.50;;
67597;SDS011;62026;39.230;9.122;2023-09-12T09:59:23;5.80;;;2.63;;
67597;SDS011;62026;39.230;9.122;2023-09-12T10:01:55;6.10;;;2.55;;
67597;SDS011;62026;39.230;9.122;2023-09-12T10:04:23;3.83;;;2.50;;
67597;SDS011;62026;39.230;9.122;2023-09-12T10:06:52;4.65;;;2.40;;
67597;SDS011;62026;39.230;9.122;2023-09-12T10:09:22;4.88;;;2.92;;
67597;SDS011;62026;39.230;9.122;2023-09-12T10:11:51;4.53;;;3.45;;
67597;SDS011;62026;39.230;9.122;2023-09-12T10:14:20;4.20;;;2.63;;
67597;SDS011;62026;39.230;9.122;2023-09-12T10:16:50;3.50;;;2.50;;
67597;SDS011;62026;39.230;9.122;2023-09-12T10:19:26;7.75;;;2.63;;
67597;SDS011;62026;39.230;9.122;2023-09-12T10:22:27;6.43;;;2.88;;
67597;SDS011;62026;39.230;9.122;2023-09-12T10:25:04;6.00;;;2.70;;
67597;SDS011;62026;39.230;9.122;2023-09-12T10:27:32;7.03;;;2.90;;
67597;SDS011;62026;39.230;9.122;2023-09-12T10:29:59;5.00;;;2.60;;
67597;SDS011;62026;39.230;9.122;2023-09-12T10:32:27;7.30;;;2.60;;
67597;SDS011;62026;39.230;9.122;2023-09-12T10:34:57;4.05;;;2.50;;
67597;SDS011;62026;39.230;9.122;2023-09-12T10:37:25;3.65;;;2.70;;
67597;SDS011;62026;39.230;9.122;2023-09-12T10:39:53;6.43;;;2.70;;
67597;SDS011;62026;39.230;9.122;2023-09-12T10:42:21;3.75;;;2.40;;
67597;SDS011;62026;39.230;9.122;2023-09-12T10:44:49;4.85;;;2.50;;
67597;SDS011;62026;39.230;9.122;2023-09-12T10:47:17;5.55;;;3.10;;
67597;SDS011;62026;39.230;9.122;2023-09-12T10:49:44;4.43;;;2.53;;
67597;SDS011;62026;39.230;9.122;2023-09-12T10:52:10;6.90;;;2.40;;
67597;SDS011;62026;39.230;9.122;2023-09-12T10:54:50;4.55;;;2.90;;
67597;SDS011;62026;39.230;9.122;2023-09-12T10:57:16;9.20;;;2.72;;
67597;SDS011;62026;39.230;9.122;2023-09-12T11:02:32;4.38;;;2.53;;
67597;SDS011;62026;39.230;9.122;2023-09-12T11:12:40;4.82;;;2.53;;
67597;SDS011;62026;39.230;9.122;2023-09-12T11:15:12;3.78;;;2.45;;
67597;SDS011;62026;39.230;9.122;2023-09-12T11:17:41;4.65;;;2.80;;
67597;SDS011;62026;39.230;9.122;2023-09-12T11:20:11;3.80;;;2.80;;
67597;SDS011;62026;39.230;9.122;2023-09-12T11:22:45;7.25;;;3.10;;
67597;SDS011;62026;39.230;9.122;2023-09-12T11:30:23;4.80;;;2.40;;
67597;SDS011;62026;39.230;9.122;2023-09-12T11:32:51;10.25;;;3.42;;
67597;SDS011;62026;39.230;9.122;2023-09-12T11:35:26;6.38;;;2.67;;
67597;SDS011;62026;39.230;9.122;2023-09-12T11:37:57;6.43;;;2.70;;
67597;SDS011;62026;39.230;9.122;2023-09-12T11:43:30;6.32;;;2.55;;
67597;SDS011;62026;39.230;9.122;2023-09-12T11:45:57;4.88;;;2.75;;
67597;SDS011;62026;39.230;9.122;2023-09-12T11:48:23;3.65;;;2.38;;
67597;SDS011;62026;39.230;9.122;2023-09-12T11:50:50;5.13;;;2.63;;
67597;SDS011;62026;39.230;9.122;2023-09-12T11:53:21;5.45;;;2.53;;
67597;SDS011;62026;39.230;9.122;2023-09-12T11:55:58;4.25;;;2.65;;
67597;SDS011;62026;39.230;9.122;2023-09-12T11:58:26;3.47;;;2.33;;
67597;SDS011;62026;39.230;9.122;2023-09-12T12:00:54;3.97;;;2.78;;
67597;SDS011;62026;39.230;9.122;2023-09-12T12:03:23;5.28;;;2.85;;
67597;SDS011;62026;39.230;9.122;2023-09-12T12:05:51;3.53;;;2.95;;
67597;SDS011;62026;39.230;9.122;2023-09-12T12:08:19;8.27;;;3.10;;
67597;SDS011;62026;39.230;9.122;2023-09-12T12:10:49;8.50;;;3.45;;
67597;SDS011;62026;39.230;9.122;2023-09-12T12:13:17;5.80;;;2.67;;
67597;SDS011;62026;39.230;9.122;2023-09-12T12:15:45;4.68;;;2.47;;
67597;SDS011;62026;39.230;9.122;2023-09-12T12:18:11;3.22;;;2.53;;
67597;SDS011;62026;39.230;9.122;2023-09-12T12:20:38;4.03;;;2.40;;
67597;SDS011;62026;39.230;9.122;2023-09-12T12:23:04;3.50;;;2.47;;
67597;SDS011;62026;39.230;9.122;2023-09-12T12:25:33;9.65;;;2.70;;
67597;SDS011;62026;39.230;9.122;2023-09-12T12:28:01;5.85;;;2.60;;
67597;SDS011;62026;39.230;9.122;2023-09-12T12:30:31;3.95;;;2.60;;
67597;SDS011;62026;39.230;9.122;2023-09-12T12:33:00;5.03;;;2.70;;
67597;SDS011;62026;39.230;9.122;2023-09-12T12:35:35;6.25;;;2.85;;
67597;SDS011;62026;39.230;9.122;2023-09-12T12:38:02;4.57;;;2.70;;
67597;SDS011;62026;39.230;9.122;2023-09-12T12:40:28;3.90;;;3.10;;
67597;SDS011;62026;39.230;9.122;2023-09-12T12:42:54;6.97;;;2.90;;
67597;SDS011;62026;39.230;9.122;2023-09-12T12:45:21;7.93;;;2.70;;
67597;SDS011;62026;39.230;9.122;2023-09-12T12:47:57;6.78;;;2.97;;
67597;SDS011;62026;39.230;9.122;2023-09-12T12:50:25;5.55;;;3.25;;
67597;SDS011;62026;39.230;9.122;2023-09-12T12:52:52;3.83;;;2.85;;
67597;SDS011;62026;39.230;9.122;2023-09-12T12:55:19;5.13;;;2.80;;
67597;SDS011;62026;39.230;9.122;2023-09-12T12:57:50;3.85;;;2.67;;
67597;SDS011;62026;39.230;9.122;2023-09-12T13:00:16;5.93;;;2.63;;
67597;SDS011;62026;39.230;9.122;2023-09-12T13:02:44;5.57;;;2.83;;
67597;SDS011;62026;39.230;9.122;2023-09-12T13:07:55;2.88;;;2.22;;
67597;SDS011;62026;39.230;9.122;2023-09-12T13:10:22;6.85;;;2.70;;
67597;SDS011;62026;39.230;9.122;2023-09-12T13:12:49;3.63;;;2.85;;
67597;SDS011;62026;39.230;9.122;2023-09-12T13:15:16;8.23;;;2.92;;
67597;SDS011;62026;39.230;9.122;2023-09-12T13:17:43;7.10;;;2.85;;
67597;SDS011;62026;39.230;9.122;2023-09-12T13:20:10;4.43;;;3.08;;
67597;SDS011;62026;39.230;9.122;2023-09-12T13:22:36;7.60;;;3.30;;
67597;SDS011;62026;39.230;9.122;2023-09-12T13:25:04;3.55;;;2.60;;
67597;SDS011;62026;39.230;9.122;2023-09-12T13:27:31;8.82;;;2.63;;
67597;SDS011;62026;39.230;9.122;2023-09-12T13:29:58;5.05;;;3.00;;
67597;SDS011;62026;39.230;9.122;2023-09-12T13:32:24;4.15;;;2.97;;
67597;SDS011;62026;39.230;9.122;2023-09-12T13:34:50;6.25;;;2.92;;
67597;SDS011;62026;39.230;9.122;2023-09-12T13:37:17;5.53;;;2.63;;
67597;SDS011;62026;39.230;9.122;2023-09-12T13:39:44;4.50;;;2.75;;
67597;SDS011;62026;39.230;9.122;2023-09-12T13:42:14;5.60;;;2.92;;
67597;SDS011;62026;39.230;9.122;2023-09-12T13:44:45;6.90;;;2.70;;
67597;SDS011;62026;39.230;9.122;2023-09-12T13:47:12;4.43;;;2.65;;
67597;SDS011;62026;39.230;9.122;2023-09-12T13:49:38;7.18;;;2.45;;
67597;SDS011;62026;39.230;9.122;2023-09-12T13:52:04;7.35;;;2.90;;
67597;SDS011;62026;39.230;9.122;2023-09-12T13:54:30;6.00;;;3.00;;
67597;SDS011;62026;39.230;9.122;2023-09-12T13:56:57;3.95;;;2.70;;
67597;SDS011;62026;39.230;9.122;2023-09-12T13:59:23;6.65;;;2.78;;
67597;SDS011;62026;39.230;9.122;2023-09-12T14:01:49;4.78;;;2.70;;
67597;SDS011;62026;39.230;9.122;2023-09-12T14:04:15;4.82;;;2.70;;
67597;SDS011;62026;39.230;9.122;2023-09-12T14:06:41;8.05;;;2.80;;
67597;SDS011;62026;39.230;9.122;2023-09-12T14:09:08;6.30;;;2.88;;
67597;SDS011;62026;39.230;9.122;2023-09-12T14:11:34;7.13;;;2.70;;
67597;SDS011;62026;39.230;9.122;2023-09-12T14:14:01;3.58;;;2.45;;
67597;SDS011;62026;39.230;9.122;2023-09-12T14:16:29;6.55;;;2.60;;
67597;SDS011;62026;39.230;9.122;2023-09-12T14:18:55;6.97;;;2.70;;
67597;SDS011;62026;39.230;9.122;2023-09-12T14:21:21;8.88;;;2.90;;
67597;SDS011;62026;39.230;9.122;2023-09-12T14:23:47;5.60;;;2.50;;
67597;SDS011;62026;39.230;9.122;2023-09-12T14:26:14;9.70;;;2.88;;
67597;SDS011;62026;39.230;9.122;2023-09-12T14:28:39;4.60;;;3.00;;
67597;SDS011;62026;39.230;9.122;2023-09-12T14:31:05;4.25;;;2.95;;
67597;SDS011;62026;39.230;9.122;2023-09-12T14:33:38;6.00;;;2.97;;
67597;SDS011;62026;39.230;9.122;2023-09-12T14:36:06;4.20;;;2.63;;
67597;SDS011;62026;39.230;9.122;2023-09-12T14:38:34;6.10;;;2.50;;
67597;SDS011;62026;39.230;9.122;2023-09-12T14:41:01;5.93;;;2.88;;
67597;SDS011;62026;39.230;9.122;2023-09-12T14:43:27;5.80;;;2.80;;
67597;SDS011;62026;39.230;9.122;2023-09-12T14:45:54;3.85;;;2.80;;
67597;SDS011;62026;39.230;9.122;2023-09-12T14:48:20;6.07;;;3.00;;
67597;SDS011;62026;39.230;9.122;2023-09-12T14:50:46;6.10;;;2.75;;
67597;SDS011;62026;39.230;9.122;2023-09-12T14:53:15;5.50;;;2.60;;
67597;SDS011;62026;39.230;9.122;2023-09-12T14:55:41;5.25;;;2.72;;
67597;SDS011;62026;39.230;9.122;2023-09-12T14:58:08;9.18;;;2.60;;
67597;SDS011;62026;39.230;9.122;2023-09-12T15:00:34;5.18;;;2.50;;
67597;SDS011;62026;39.230;9.122;2023-09-12T15:03:01;7.75;;;2.50;;
67597;SDS011;62026;39.230;9.122;2023-09-12T15:05:28;9.50;;;2.63;;
67597;SDS011;62026;39.230;9.122;2023-09-12T15:07:54;9.13;;;2.85;;
67597;SDS011;62026;39.230;9.122;2023-09-12T15:10:20;4.47;;;2.45;;
67597;SDS011;62026;39.230;9.122;2023-09-12T15:12:46;7.70;;;2.70;;
67597;SDS011;62026;39.230;9.122;2023-09-12T15:15:12;3.45;;;2.58;;
67597;SDS011;62026;39.230;9.122;2023-09-12T15:17:38;5.55;;;2.70;;